• Join FlightAware (Why Join?)
  • Login
  • US Flag 
06:04PM EDT


 

Airport Tracker/Info


-or-


 

Live Flight TrackerFlight Track Log ✈ SWA1231 ✈ 12-Apr-2013 ✈ KDAL - KBHM

Flight Track Log - Related Links

Times and Time Zones

All times are in EDT time to prevent confusion due to time zone crossing. See the SWA1231 flight status page for this flight to view local times or setup timezone preferences in your user account.

Time Position Orientation Groundspeed Altitude Reporting Facility
EDT Latitude Longitude Course Direction KTS MPH feet Rate Location/Type
02:04PM 32.7833 -96.7833 128° Southeast 225 259 4,400  Level Dallas / Fort Worth TRACON
02:06PM 32.8203 -96.5903 77° East 291 335 10,800 3,180 Climbing Fort Worth Center
02:07PM 32.8403 -96.4836 77° East 316 364 13,900 3,300 Climbing Fort Worth Center
02:08PM 32.8603 -96.3622 79° East 354 407 17,400 2,880 Climbing Fort Worth Center
02:09PM 32.8675 -96.2286 86° East 387 445 19,700 2,640 Climbing Fort Worth Center
02:10PM 32.8703 -96.0853 89° East 425 489 22,700 2,640 Climbing Fort Worth Center
02:11PM 32.8708 -95.9467 90° East 448 516 25,100 2,340 Climbing Fort Worth Center
02:12PM 32.8750 -95.7783 88° East 457 526 27,500 2,280 Climbing Fort Worth Center
02:13PM 32.8769 -95.6175 89° East 468 539 29,700 2,040 Climbing Fort Worth Center
02:14PM 32.8808 -95.4542 88° East 481 554 31,600 1,740 Climbing Fort Worth Center
02:15PM 32.8947 -95.2858 84° East 496 571 33,200 1,680 Climbing Fort Worth Center
02:16PM 32.9147 -95.1194 82° East 501 577 35,000 1,680 Climbing Fort Worth Center
02:17PM 32.9408 -94.9528 79° East 506 582 36,600 1,380 Climbing Fort Worth Center
02:18PM 32.9689 -94.7889 78° East 506 582 37,800 1,200 Climbing Fort Worth Center
02:19PM 32.9922 -94.6197 81° East 506 582 39,000 1,140 Climbing Fort Worth Center
02:20PM 33.0156 -94.4506 81° East 506 582 40,100 900 Climbing Fort Worth Center
02:21PM 33.0408 -94.2811 80° East 506 582 40,900 420 Climbing Fort Worth Center
02:22PM 33.0656 -94.1092 80° East 516 594 41,000  Climbing Fort Worth Center
02:23PM 33.0886 -93.9522 80° East 523 602 41,000  Level Fort Worth Center
02:24PM 33.1128 -93.7803 80° East 523 602 41,000  Level Fort Worth Center
02:25PM 33.1369 -93.6081 80° East 523 602 41,000  Level Fort Worth Center
02:26PM 33.1631 -93.4356 80° East 523 602 41,000  Level Fort Worth Center
02:27PM 33.1867 -93.2658 81° East 523 602 41,000  Level Fort Worth Center
02:28PM 33.2103 -93.0958 81° East 523 602 41,000  Level Fort Worth Center
02:29PM 33.2314 -92.9261 81° East 523 602 41,000  Level Fort Worth Center
02:31PM 33.2694 -92.6158 82° East 526 605 41,000  Level Memphis Center
02:32PM 33.2872 -92.4447 83° East 520 598 41,000  Level Memphis Center
02:33PM 33.3044 -92.2711 83° East 520 598 41,000  Level Memphis Center
02:34PM 33.3175 -92.1000 85° East 520 598 41,000  Level Memphis Center
02:35PM 33.3342 -91.9286 83° East 520 598 41,000  Level Memphis Center
02:36PM 33.3489 -91.7522 84° East 520 598 41,000  Level Memphis Center
02:37PM 33.3569 -91.5808 87° East 520 598 41,000  Level Memphis Center
02:38PM 33.3711 -91.4094 84° East 515 593 41,000  Level Memphis Center
02:39PM 33.3892 -91.2156 84° East 515 593 41,000  Level Memphis Center
02:40PM 33.4008 -91.0439 85° East 520 598 41,000  Level Memphis Center
02:41PM 33.4161 -90.8725 84° East 520 598 41,000  Level Memphis Center
02:42PM 33.4314 -90.7033 84° East 520 598 41,000  Level Memphis Center
02:43PM 33.4442 -90.5314 85° East 520 598 41,000  Level Memphis Center
02:44PM 33.4589 -90.3597 84° East 520 598 41,000  Level Memphis Center
02:45PM 33.4650 -90.1853 88° East 520 598 41,000  Level Memphis Center
02:46PM 33.4689 -90.0111 88° East 515 593 41,000  Level Memphis Center
02:47PM 33.4725 -89.8592 88° East 515 593 41,000 -540 Level Memphis Center
02:48PM 33.4758 -89.6847 89° East 515 593 40,000 -960 Descending Memphis Center
02:49PM 33.4769 -89.5131 90° East 515 593 39,100 -960 Descending Memphis Center
02:50PM 33.4797 -89.3411 89° East 515 593 38,100 -1,020 Descending Memphis Center
02:51PM 33.4803 -89.1642 90° East 515 593 37,100 -960 Descending Memphis Center
02:52PM 33.4828 -88.9897 89° East 515 593 36,200 -960 Descending Memphis Center
02:53PM 33.4847 -88.8181 89° East 515 593 35,200 -960 Descending Memphis Center
02:54PM 33.4825 -88.6436 91° East 515 593 34,300 -1,140 Descending Memphis Center
02:55PM 33.4944 -88.4542 86° East 515 593 33,000 -1,200 Descending Memphis Center
02:56PM 33.5167 -88.2842 81° East 520 598 32,000 -1,200 Descending Memphis Center
02:57PM 33.5306 -88.1169 84° East 515 593 30,700 -1,680 Descending Memphis Center
02:58PM 33.5508 -87.9744 80° East 499 574 28,900 -2,160 Descending Memphis Center
02:58PM 33.5561 -87.9217 83° East 494 568 28,200 -2,100 Descending Memphis Center
02:59PM 33.5739 -87.7667 82° East 477 549 26,200 -1,980 Descending Memphis Center
03:00PM 33.5914 -87.6167 82° East 462 532 24,300 -1,800 Descending Memphis Center
03:02PM 33.6131 -87.3839 84° East 442 509 21,300 -2,160 Descending Atlanta Center
03:03PM 33.6294 -87.2472 82° East 421 484 18,500 -2,580 Descending Atlanta Center
03:04PM 33.6411 -87.1153 84° East 411 473 16,200 -2,340 Descending Atlanta Center
03:05PM 33.6525 -86.9886 84° East 391 450 13,900 -2,340 Descending Atlanta Center
03:06PM 33.6614 -86.8717 85° East 373 429 11,600 -2,400 Descending Atlanta Center
03:06PM 33.6606 -86.8242 91° East 342 394 10,700 -1,920 Descending Atlanta Center
03:07PM 33.6661 -86.7569 84° East 353 406 9,700 -1,800 Descending Atlanta Center
03:07PM 33.6778 -86.7072 74° East 308 354 8,700 -1,920 Descending Atlanta Center
03:08PM 33.6953 -86.6656 63° Northeast 328 377 7,800 -2,280 Descending Atlanta Center
03:08PM 33.7106 -86.6408 53° Northeast 291 335 6,900 -2,040 Descending Atlanta Center
03:09PM 33.7386 -86.5842 59° Northeast 301 346 5,800 -1,620 Descending Atlanta Center
03:09PM 33.7561 -86.5522 57° Northeast 282 325 5,100 -1,080 Descending Atlanta Center
03:10PM 33.7408 -86.4844 105° East 228 262 4,300 -720 Descending Atlanta Center
03:11PM 33.6939 -86.5281 218° Southwest 213 245 3,600 -600 Descending Atlanta Center
03:12PM 33.6658 -86.5797 237° Southwest 188 216 3,100 -540 Descending Atlanta Center
03:13PM 33.6378 -86.6236 232° Southwest 165 190 2,600 -480 Descending Atlanta Center
03:14PM 33.6139 -86.6703 238° Southwest 148 170 2,200 -360 Descending Atlanta Center